Time;durP1;ratioP1;P1;durP2;ratioP2;P2;SDS_P1;SDS_P2;PMS_P1;PMS_P2;Temp;Humidity;BMP_temperature;BMP_pressure;BME280_temperature;BME280_humidity;BME280_pressure;Samples;Min_cycle;Max_cycle;Signal;HPM_P1;HPM_P2
2022/05/01 00:01:49;;;;;;;9.15;4.85;;;;;;;12.29;73.93;100737.94;5590282;31;33945;-64
2022/05/01 00:04:52;;;;;;;6.60;4.62;;;;;;;12.16;73.95;100742.94;5589504;31;32434;-64
2022/05/01 00:07:54;;;;;;;8.05;4.57;;;;;;;12.20;74.01;100738.94;5589265;31;33310;-64
2022/05/01 00:10:57;;;;;;;7.30;4.53;;;;;;;12.11;74.91;100740.78;5589192;31;34665;-64
2022/05/01 00:14:14;;;;;;;8.68;4.85;;;;;;;12.16;74.10;100737.59;5589405;31;33959;-64
2022/05/01 00:17:17;;;;;;;7.82;4.10;;;;;;;12.03;74.78;100746.13;5590097;31;34647;-64
2022/05/01 00:20:19;;;;;;;6.60;4.40;;;;;;;11.97;75.64;100737.97;5590329;31;33849;-64
2022/05/01 00:23:22;;;;;;;7.87;4.62;;;;;;;12.02;73.48;100741.78;5589247;31;32548;-64
2022/05/01 00:26:25;;;;;;;6.62;4.30;;;;;;;12.03;74.04;100746.13;5589141;31;34230;-64
2022/05/01 00:29:30;;;;;;;7.93;4.70;;;;;;;11.95;74.19;100743.47;5589914;31;34696;-64
2022/05/01 00:36:25;;;;;;;7.12;4.53;;;;;;;12.00;74.44;100740.31;5588883;31;33355;-64
2022/05/01 00:39:16;;;;;;;10.43;4.87;;;;;;;12.19;74.20;100735.47;5589790;31;33932;-64
2022/05/01 00:42:19;;;;;;;9.52;5.40;;;;;;;12.26;73.24;100738.25;5589120;31;33303;-64
2022/05/01 00:45:22;;;;;;;8.05;4.85;;;;;;;12.09;74.57;100744.63;5588996;31;33975;-64
2022/05/01 00:48:24;;;;;;;10.52;5.10;;;;;;;11.96;75.55;100741.63;5588816;31;33106;-64
2022/05/01 00:51:33;;;;;;;8.32;4.97;;;;;;;11.94;75.93;100739.16;5590051;31;34003;-64
2022/05/01 00:54:39;;;;;;;9.32;5.05;;;;;;;11.92;76.36;100746.44;5589642;31;33982;-64
2022/05/01 00:57:44;;;;;;;9.48;5.18;;;;;;;11.93;76.92;100747.28;5589454;31;34296;-64
2022/05/01 01:00:47;;;;;;;7.65;5.40;;;;;;;11.82;76.99;100737.81;5589618;31;34014;-64
2022/05/01 01:03:51;;;;;;;8.57;4.93;;;;;;;11.82;76.78;100747.62;5589605;31;34575;-64
2022/05/01 01:06:54;;;;;;;7.50;5.03;;;;;;;12.08;75.54;100743.78;5589690;31;33981;-64
2022/05/01 01:09:56;;;;;;;7.93;5.00;;;;;;;11.92;76.06;100746.44;5589487;31;34565;-64
2022/05/01 01:12:59;;;;;;;8.43;4.50;;;;;;;11.92;76.54;100748.28;5589592;31;34034;-64
2022/05/01 01:16:08;;;;;;;8.60;5.35;;;;;;;11.93;77.40;100740.12;5588846;31;32711;-65
2022/05/01 01:19:11;;;;;;;8.02;4.82;;;;;;;11.87;77.58;100742.63;5589422;31;34611;-64
2022/05/01 01:22:13;;;;;;;8.15;5.18;;;;;;;11.79;78.87;100753.28;5589473;31;34001;-64
2022/05/01 01:25:20;;;;;;;8.75;4.72;;;;;;;11.85;77.53;100750.78;5589368;31;34018;-64
2022/05/01 01:28:23;;;;;;;7.07;4.70;;;;;;;11.93;77.74;100755.25;5588246;31;32677;-64
2022/05/01 01:31:42;;;;;;;6.05;3.95;;;;;;;11.85;76.95;100747.28;5589215;31;33966;-64
2022/05/01 01:34:44;;;;;;;8.35;4.07;;;;;;;11.96;74.98;100749.59;5589115;31;34065;-63
2022/05/01 01:37:49;;;;;;;6.15;3.97;;;;;;;11.96;74.66;100746.94;5589030;31;34704;-64
2022/05/01 01:40:54;;;;;;;4.82;3.50;;;;;;;11.81;74.73;100740.66;5589276;31;34689;-64
2022/05/01 01:43:58;;;;;;;6.45;4.00;;;;;;;11.86;74.87;100747.09;5588367;31;33205;-64
2022/05/01 01:47:00;;;;;;;6.32;4.28;;;;;;;11.78;75.61;100739.16;5589255;31;33993;-64
2022/05/01 01:50:04;;;;;;;6.50;3.78;;;;;;;11.74;75.29;100737.81;5589426;31;34052;-64
2022/05/01 01:53:09;;;;;;;8.73;4.55;;;;;;;11.71;73.92;100741.59;5595466;31;34029;-64
2022/05/01 01:56:12;;;;;;;6.32;3.67;;;;;;;11.68;74.49;100744.59;5594541;31;33311;-64
2022/05/01 01:59:15;;;;;;;5.78;3.90;;;;;;;11.69;74.51;100740.12;5594479;31;32644;-64
2022/05/01 02:02:17;;;;;;;6.00;3.85;;;;;;;11.62;75.23;100736.44;5595593;31;33859;-64
2022/05/01 02:05:20;;;;;;;5.75;3.90;;;;;;;11.58;75.71;100733.31;5595072;31;34775;-64
2022/05/01 02:08:23;;;;;;;7.05;4.05;;;;;;;11.73;74.57;100736.16;5594483;31;33587;-64
2022/05/01 02:11:26;;;;;;;5.37;3.90;;;;;;;11.75;74.37;100736.84;5595338;31;33952;-64
2022/05/01 02:14:28;;;;;;;7.47;3.97;;;;;;;11.89;74.12;100744.12;5594986;31;33915;-64
2022/05/01 02:17:31;;;;;;;7.12;3.70;;;;;;;11.69;75.04;100743.59;5594110;31;32765;-64
2022/05/01 02:23:55;;;;;;;8.10;4.43;;;;;;;11.76;75.54;100738.50;5594844;31;33968;-64
2022/05/01 02:26:58;;;;;;;7.50;4.50;;;;;;;11.80;74.32;100731.84;5595085;31;33906;-64
2022/05/01 02:30:00;;;;;;;7.40;4.43;;;;;;;11.69;75.97;100738.28;5587054;31;240648;-65
2022/05/01 02:33:03;;;;;;;9.50;4.57;;;;;;;11.59;75.89;100736.78;5594675;31;34698;-64
2022/05/01 02:36:07;;;;;;;7.78;4.28;;;;;;;11.62;76.44;100731.97;5594651;31;34387;-64
2022/05/01 02:39:10;;;;;;;6.15;4.05;;;;;;;11.72;76.19;100740.62;5593969;31;32529;-64
2022/05/01 02:42:13;;;;;;;6.43;3.90;;;;;;;11.52;77.36;100739.25;5594615;31;34025;-64
2022/05/01 02:45:16;;;;;;;8.40;4.28;;;;;;;11.41;78.12;100731.66;5594436;31;33896;-64
2022/05/01 02:48:18;;;;;;;7.20;3.90;;;;;;;11.52;78.73;100733.94;5594401;31;34232;-64
2022/05/01 02:51:21;;;;;;;6.90;4.10;;;;;;;11.43;78.05;100734.94;5594380;31;33873;-64
2022/05/01 02:54:24;;;;;;;6.40;3.92;;;;;;;11.46;78.25;100736.47;5594690;31;33843;-64
2022/05/01 02:57:28;;;;;;;9.10;4.15;;;;;;;11.47;77.85;100732.81;5593592;31;32526;-64
2022/05/01 03:00:31;;;;;;;5.95;3.67;;;;;;;11.48;77.76;100729.97;5594198;31;34232;-64
2022/05/01 03:03:34;;;;;;;6.18;4.28;;;;;;;11.69;77.46;100730.31;5590750;31;33923;-64
2022/05/01 03:06:37;;;;;;;5.35;4.28;;;;;;;11.65;76.35;100730.81;5590668;31;34044;-64
2022/05/01 03:09:41;;;;;;;6.22;4.10;;;;;;;11.56;75.91;100729.16;5590627;31;34163;-64
2022/05/01 03:12:44;;;;;;;9.73;4.55;;;;;;;11.51;76.55;100726.16;5590444;31;34587;-64
2022/05/01 03:15:47;;;;;;;6.78;4.07;;;;;;;11.37;75.78;100740.09;5590846;31;34420;-64
2022/05/01 03:22:11;;;;;;;6.93;3.72;;;;;;;11.35;77.57;100737.59;5589541;31;34041;-64
2022/05/01 03:25:13;;;;;;;6.05;4.22;;;;;;;11.31;78.74;100744.25;5576555;31;32667;-64
2022/05/01 03:28:16;;;;;;;5.65;3.85;;;;;;;11.26;78.07;100746.56;5590534;31;33901;-64
2022/05/01 03:31:19;;;;;;;6.05;3.85;;;;;;;11.31;77.71;100752.22;5590163;31;34513;-64
2022/05/01 03:34:23;;;;;;;4.93;3.87;;;;;;;11.33;77.88;100740.41;5589922;31;32410;-64
2022/05/01 03:37:26;;;;;;;5.62;3.92;;;;;;;11.47;75.97;100749.59;5590383;31;33890;-64
2022/05/01 03:40:28;;;;;;;6.22;3.78;;;;;;;11.26;75.70;100750.03;5590314;31;34038;-64
2022/05/01 03:43:32;;;;;;;6.78;4.30;;;;;;;11.26;76.10;100746.56;5590241;31;33979;-64
2022/05/01 03:46:38;;;;;;;5.47;3.87;;;;;;;11.29;75.82;100748.87;5590146;31;33948;-63
2022/05/01 03:49:41;;;;;;;6.18;4.30;;;;;;;11.48;75.37;100753.03;5590502;31;33985;-64
2022/05/01 03:52:45;;;;;;;7.35;4.35;;;;;;;11.49;74.19;100762.69;5590293;31;33965;-64
2022/05/01 03:55:48;;;;;;;9.65;4.20;;;;;;;11.33;75.56;100766.13;5590199;31;35228;-64
2022/05/01 03:58:51;;;;;;;5.95;3.55;;;;;;;11.47;75.87;100759.37;5590201;31;34338;-64
2022/05/01 04:01:54;;;;;;;5.75;3.67;;;;;;;11.33;74.72;100753.69;5589019;31;32638;-64
2022/05/01 04:05:00;;;;;;;11.00;3.97;;;;;;;11.39;73.66;100754.03;5590052;31;34332;-64
2022/05/01 04:08:02;;;;;;;7.78;3.83;;;;;;;11.51;74.44;100747.44;5589478;31;32521;-64
2022/05/01 04:11:05;;;;;;;8.88;3.42;;;;;;;11.56;74.67;100756.56;5589279;31;32436;-64
2022/05/01 04:14:08;;;;;;;8.93;4.25;;;;;;;11.60;75.36;100762.37;5589080;31;33968;-64
2022/05/01 04:17:10;;;;;;;9.10;4.53;;;;;;;11.48;76.21;100764.50;5589966;31;34037;-64
2022/05/01 04:20:15;;;;;;;5.55;3.90;;;;;;;11.48;75.59;100779.63;5589404;31;33373;-64
2022/05/01 04:23:18;;;;;;;4.90;3.75;;;;;;;11.34;76.03;100776.63;5589326;31;33057;-64
2022/05/01 04:26:21;;;;;;;6.68;4.00;;;;;;;11.49;76.19;100784.78;5589859;31;34656;-64
2022/05/01 04:29:36;;;;;;;5.60;3.55;;;;;;;11.46;77.85;100771.00;5589726;31;34124;-64
2022/05/01 04:32:55;;;;;;;5.62;3.40;;;;;;;11.56;77.97;100774.34;5589688;31;34219;-65
2022/05/01 04:35:59;;;;;;;5.25;3.72;;;;;;;11.61;78.75;100780.00;5589879;31;33896;-64
2022/05/01 04:39:02;;;;;;;7.37;3.85;;;;;;;11.51;79.64;100789.94;5588852;31;32459;-64
2022/05/01 04:42:05;;;;;;;7.47;4.10;;;;;;;11.53;80.16;100788.75;5590119;31;33933;-64
2022/05/01 04:45:10;;;;;;;8.45;4.20;;;;;;;11.63;79.75;100792.09;5589902;31;33990;-63
2022/05/01 04:48:13;;;;;;;5.97;4.15;;;;;;;11.54;80.61;100795.75;5589993;31;34547;-63
2022/05/01 04:51:16;;;;;;;6.30;3.95;;;;;;;11.47;80.25;100796.56;5590149;31;34389;-65
2022/05/01 04:54:19;;;;;;;5.75;4.03;;;;;;;11.26;80.97;100797.03;5588983;31;32446;-64
2022/05/01 04:57:21;;;;;;;5.30;3.87;;;;;;;11.33;79.81;100793.53;5588348;31;32563;-64
2022/05/01 05:00:25;;;;;;;6.87;3.92;;;;;;;11.49;78.86;100795.41;5588911;31;33898;-65
2022/05/01 05:03:27;;;;;;;6.65;4.12;;;;;;;11.53;78.45;100788.75;5588563;31;32600;-65
2022/05/01 05:06:30;;;;;;;7.95;3.90;;;;;;;11.57;77.44;100787.44;5589547;31;34079;-65
2022/05/01 05:12:58;;;;;;;5.28;4.00;;;;;;;11.75;75.86;100796.16;5589449;31;33943;-65
2022/05/01 05:16:01;;;;;;;5.95;4.00;;;;;;;11.90;75.28;100793.66;5589701;31;33920;-65
2022/05/01 05:19:03;;;;;;;4.50;3.55;;;;;;;11.86;74.50;100794.97;5588355;31;33718;-65
2022/05/01 05:22:06;;;;;;;6.65;4.10;;;;;;;12.05;74.09;100797.28;5588787;31;34142;-64
2022/05/01 05:25:11;;;;;;;9.43;4.22;;;;;;;12.33;73.06;100803.09;5587624;31;33217;-64
2022/05/01 05:28:13;;;;;;;5.03;3.92;;;;;;;12.56;71.01;100801.38;5589312;31;34433;-65
2022/05/01 05:31:16;;;;;;;5.60;3.90;;;;;;;12.87;68.25;100806.78;5588041;31;32349;-65
2022/05/01 05:34:19;;;;;;;6.43;3.90;;;;;;;12.88;68.99;100810.25;5588517;31;32943;-65
2022/05/01 05:37:21;;;;;;;4.70;3.40;;;;;;;12.92;68.79;100812.44;5588492;31;32350;-65
2022/05/01 05:40:24;;;;;;;6.05;3.85;;;;;;;13.29;66.16;100808.28;5588543;31;32550;-65
2022/05/01 05:43:27;;;;;;;5.37;3.50;;;;;;;13.38;65.35;100815.22;5589059;31;33912;-65
2022/05/01 05:46:30;;;;;;;6.15;3.97;;;;;;;13.48;65.64;100808.66;5588158;31;32835;-65
2022/05/01 05:49:40;;;;;;;6.53;4.03;;;;;;;13.57;65.49;100820.09;5588074;31;33310;-64
2022/05/01 05:52:42;;;;;;;5.85;3.80;;;;;;;13.75;65.17;100827.81;5588753;31;34659;-64
2022/05/01 05:55:46;;;;;;;8.23;3.85;;;;;;;14.04;64.37;100813.78;5588775;31;34634;-64
2022/05/01 05:58:49;;;;;;;4.90;3.58;;;;;;;14.05;64.63;100834.91;5587806;31;32466;-64
2022/05/01 06:01:52;;;;;;;5.03;3.60;;;;;;;14.20;64.41;100832.28;5588027;31;32436;-65
2022/05/01 06:04:55;;;;;;;5.57;3.80;;;;;;;14.22;64.96;100822.28;5588527;31;34127;-65
2022/05/01 06:07:57;;;;;;;5.12;3.58;;;;;;;14.45;63.84;100824.94;5588455;31;34736;-64
2022/05/01 06:11:00;;;;;;;6.30;3.95;;;;;;;14.25;65.13;100827.25;5587742;31;32790;-65
2022/05/01 06:14:03;;;;;;;5.62;3.75;;;;;;;14.56;63.42;100830.66;5587959;31;33232;-65
2022/05/01 06:17:05;;;;;;;6.35;3.75;;;;;;;14.52;61.36;100831.22;5587565;31;32371;-64
2022/05/01 06:20:09;;;;;;;5.30;3.62;;;;;;;14.86;61.75;100825.34;5587686;31;32831;-64
2022/05/01 06:23:11;;;;;;;6.20;3.50;;;;;;;14.98;60.60;100830.03;5588346;31;33927;-65
2022/05/01 06:26:14;;;;;;;5.50;3.50;;;;;;;15.10;59.22;100833.87;5574707;31;33290;-64
2022/05/01 06:29:17;;;;;;;5.03;3.60;;;;;;;15.29;58.10;100829.81;5588204;31;34089;-65
2022/05/01 06:32:20;;;;;;;6.07;3.50;;;;;;;15.15;57.40;100836.00;5588022;31;33917;-65
2022/05/01 06:35:31;;;;;;;4.25;3.35;;;;;;;15.51;55.39;100833.37;5587096;31;32476;-65
2022/05/01 06:38:34;;;;;;;5.60;3.95;;;;;;;15.74;53.18;100836.69;5590478;31;34598;-65
2022/05/01 06:41:38;;;;;;;5.68;3.87;;;;;;;16.12;52.72;100839.94;5589900;31;33969;-65
2022/05/01 06:44:40;;;;;;;6.97;3.47;;;;;;;15.96;53.24;100829.53;5589840;31;32423;-66
2022/05/01 06:47:43;;;;;;;6.30;3.35;;;;;;;15.86;54.26;100839.72;5589724;31;33287;-66
2022/05/01 06:50:46;;;;;;;7.45;3.50;;;;;;;16.14;52.42;100837.91;5590537;31;35203;-65
2022/05/01 06:53:49;;;;;;;6.47;3.80;;;;;;;16.49;51.54;100838.81;5589997;31;33146;-65
2022/05/01 06:56:51;;;;;;;7.50;3.87;;;;;;;16.37;51.78;100832.31;5589592;31;32481;-65
2022/05/01 06:59:55;;;;;;;4.75;3.17;;;;;;;16.48;51.61;100834.47;5590122;31;32475;-64
2022/05/01 07:02:58;;;;;;;5.00;3.45;;;;;;;16.60;51.46;100835.62;5590729;31;34232;-65
2022/05/01 07:06:02;;;;;;;6.32;3.28;;;;;;;16.98;50.60;100829.87;5589971;31;33486;-64
2022/05/01 07:09:05;;;;;;;5.55;3.53;;;;;;;17.29;50.49;100835.56;5590555;31;34669;-64
2022/05/01 07:12:10;;;;;;;4.65;3.17;;;;;;;17.63;46.86;100832.00;5590401;31;33873;-64
2022/05/01 07:15:14;;;;;;;5.45;3.03;;;;;;;17.77;46.68;100834.50;5589469;31;32583;-65
2022/05/01 07:18:17;;;;;;;7.93;3.50;;;;;;;18.41;46.11;100825.88;5590402;31;33923;-65
2022/05/01 07:21:19;;;;;;;4.20;3.05;;;;;;;19.13;44.82;100827.59;5590082;31;33932;-66
2022/05/01 07:24:22;;;;;;;4.85;3.25;;;;;;;19.00;44.17;100833.03;5589533;31;32846;-65
2022/05/01 07:27:24;;;;;;;5.72;3.70;;;;;;;19.06;45.31;100826.81;5589647;31;32431;-65
2022/05/01 07:30:27;;;;;;;7.03;3.45;;;;;;;20.31;43.42;100826.13;5589052;31;32718;-66
2022/05/01 07:33:30;;;;;;;5.00;2.78;;;;;;;20.90;41.83;100824.72;5589415;31;32495;-66
2022/05/01 07:36:33;;;;;;;3.85;3.12;;;;;;;21.46;39.34;100817.19;5589797;31;34643;-66
2022/05/01 07:39:35;;;;;;;5.03;3.40;;;;;;;21.13;40.44;100822.16;5589407;31;32649;-66
2022/05/01 07:42:38;;;;;;;4.10;2.97;;;;;;;22.03;38.96;100812.22;5589486;31;32671;-65
2022/05/01 07:45:41;;;;;;;3.40;2.40;;;;;;;21.08;40.85;100813.91;5589293;31;32515;-66
2022/05/01 07:48:49;;;;;;;5.37;3.67;;;;;;;21.46;39.59;100810.97;5588650;31;33689;-66
2022/05/01 07:51:51;;;;;;;4.85;2.80;;;;;;;21.15;40.74;100806.63;5589443;31;32501;-65
2022/05/01 07:54:54;;;;;;;6.37;2.97;;;;;;;22.13;37.98;100803.53;5589137;31;32622;-66
2022/05/01 07:57:57;;;;;;;4.68;2.85;;;;;;;22.87;37.61;100806.37;5590130;31;34298;-66
2022/05/01 08:01:01;;;;;;;4.82;3.05;;;;;;;23.59;36.43;100806.75;5590015;31;33981;-66
2022/05/01 08:07:26;;;;;;;3.70;2.72;;;;;;;23.10;36.28;100797.38;5589234;31;32520;-67
2022/05/01 08:10:28;;;;;;;5.28;2.75;;;;;;;23.68;35.21;100799.87;5588995;31;32478;-68
2022/05/01 08:13:31;;;;;;;3.83;2.33;;;;;;;22.64;36.96;100795.56;5589494;31;34462;-67
2022/05/01 08:16:35;;;;;;;3.97;2.62;;;;;;;23.35;35.63;100794.38;5589343;31;33463;-66
2022/05/01 08:23:17;;;;;;;3.17;2.42;;;;;;;24.83;34.71;100784.91;5588694;31;32613;-66
2022/05/01 08:26:21;;;;;;;3.55;2.30;;;;;;;24.89;33.64;100783.91;5589838;31;34720;-67
2022/05/01 08:29:23;;;;;;;3.42;2.30;;;;;;;26.75;30.42;100784.00;5588977;31;33967;-67
2022/05/01 08:32:26;;;;;;;3.55;2.30;;;;;;;26.90;30.13;100773.22;5588654;31;33283;-68
2022/05/01 08:35:29;;;;;;;4.53;2.35;;;;;;;26.99;30.24;100776.25;5589420;31;34907;-67
2022/05/01 08:38:32;;;;;;;3.92;2.40;;;;;;;27.42;29.22;100775.00;5588266;31;33334;-67
2022/05/01 08:41:35;;;;;;;3.80;2.10;;;;;;;26.31;30.38;100765.25;5588329;31;32788;-67
2022/05/01 08:44:38;;;;;;;3.95;2.70;;;;;;;25.49;32.19;100773.75;5588520;31;33156;-68
2022/05/01 08:48:00;;;;;;;4.57;2.28;;;;;;;24.90;33.16;100761.12;5588829;31;34216;-67
2022/05/01 08:51:04;;;;;;;3.45;2.45;;;;;;;26.03;31.47;100768.28;5575629;31;32856;-67
2022/05/01 08:54:09;;;;;;;3.08;2.20;;;;;;;25.92;30.98;100761.94;5588789;31;32673;-67
2022/05/01 08:57:13;;;;;;;3.17;1.90;;;;;;;26.00;31.18;100747.03;5589412;31;34704;-67
2022/05/01 09:00:17;;;;;;;3.47;1.60;;;;;;;26.48;31.05;100747.94;5587423;31;33732;-67
2022/05/01 09:03:19;;;;;;;2.92;1.70;;;;;;;28.14;27.53;100754.94;5589580;31;34028;-68
2022/05/01 09:06:22;;;;;;;2.42;2.00;;;;;;;28.70;27.00;100747.44;5588300;31;34183;-66
2022/05/01 09:09:25;;;;;;;4.75;1.87;;;;;;;27.92;27.23;100755.19;5588139;31;34315;-67
2022/05/01 09:15:49;;;;;;;3.58;1.33;;;;;;;27.59;28.38;100732.81;5588506;31;32465;-67
2022/05/01 09:18:52;;;;;;;1.62;1.12;;;;;;;29.61;24.80;100741.50;5588094;31;32520;-65
2022/05/01 09:21:55;;;;;;;4.68;0.95;;;;;;;29.88;22.84;100736.34;5588561;31;32747;-66
2022/05/01 09:25:14;;;;;;;1.73;1.10;;;;;;;29.88;23.50;100735.53;5588433;31;33637;-65
2022/05/01 09:28:22;;;;;;;1.10;0.90;;;;;;;29.78;22.44;100730.97;5587890;31;32400;-66
2022/05/01 09:31:48;;;;;;;2.80;1.20;;;;;;;29.19;23.65;100726.44;5588121;31;32426;-65
2022/05/01 09:34:50;;;;;;;1.73;1.12;;;;;;;28.17;24.07;100721.66;5588967;31;33893;-65
2022/05/01 09:38:25;;;;;;;1.58;1.10;;;;;;;29.19;22.91;100725.66;5588148;31;32836;-64
2022/05/01 09:41:28;;;;;;;2.28;1.12;;;;;;;27.99;22.86;100726.53;5587631;31;32876;-65
2022/05/01 09:44:31;;;;;;;2.10;1.40;;;;;;;28.76;23.07;100727.22;5588272;31;32339;-66
2022/05/01 09:47:34;;;;;;;3.20;1.20;;;;;;;29.91;21.32;100722.16;5588009;31;32515;-66
2022/05/01 09:50:43;;;;;;;2.90;1.40;;;;;;;32.15;19.50;100727.09;5587910;31;32786;-66
2022/05/01 09:53:46;;;;;;;1.75;1.37;;;;;;;30.85;19.75;100711.53;5587950;31;34817;-65
2022/05/01 09:56:54;;;;;;;3.42;1.05;;;;;;;31.54;19.31;100716.31;5587948;31;32984;-66
2022/05/01 09:59:57;;;;;;;1.10;0.95;;;;;;;32.84;18.42;100722.44;5587371;31;32668;-65
2022/05/01 10:03:00;;;;;;;1.70;1.10;;;;;;;32.46;18.57;100713.59;5588010;31;32352;-66
2022/05/01 10:06:06;;;;;;;3.67;1.50;;;;;;;32.23;18.28;100715.44;5588265;31;33996;-66
2022/05/01 10:09:09;;;;;;;1.50;1.30;;;;;;;31.70;19.23;100716.91;5587445;31;34643;-67
2022/05/01 10:12:13;;;;;;;1.70;1.25;;;;;;;31.97;18.39;100707.91;5588205;31;32904;-67
2022/05/01 10:15:16;;;;;;;2.25;1.30;;;;;;;33.06;17.78;100703.28;5589987;31;33127;-66
2022/05/01 10:18:20;;;;;;;2.47;1.20;;;;;;;32.93;17.86;100719.78;5590043;31;33243;-67
2022/05/01 10:21:24;;;;;;;1.85;1.40;;;;;;;30.32;18.23;100697.91;5589506;31;33104;-67
2022/05/01 10:24:28;;;;;;;2.20;1.10;;;;;;;29.96;20.59;100692.00;5589540;31;33682;-66
2022/05/01 10:27:40;;;;;;;3.62;1.40;;;;;;;29.04;21.57;100698.41;5590102;31;33933;-67
2022/05/01 10:34:44;;;;;;;2.70;1.30;;;;;;;29.08;21.56;100686.66;5590733;31;34612;-66
2022/05/01 10:38:25;;;;;;;2.53;1.62;;;;;;;26.53;25.18;100675.31;5590140;31;33746;-67
2022/05/01 10:41:29;;;;;;;1.30;1.10;;;;;;;26.18;26.13;100675.13;5590715;31;33893;-65
2022/05/01 10:44:36;;;;;;;2.00;1.40;;;;;;;26.86;25.75;100668.66;5589760;31;33539;-65
2022/05/01 10:47:41;;;;;;;2.47;1.40;;;;;;;26.81;24.85;100676.78;5590679;31;34458;-67
2022/05/01 10:50:45;;;;;;;3.83;1.55;;;;;;;29.80;21.00;100668.59;5589561;31;32529;-68
2022/05/01 10:54:15;;;;;;;3.15;1.35;;;;;;;29.63;21.96;100660.81;5589646;31;32587;-64
2022/05/01 10:57:20;;;;;;;2.20;1.40;;;;;;;27.54;24.22;100663.87;5589676;31;33193;-64
2022/05/01 11:00:23;;;;;;;2.20;1.55;;;;;;;27.30;25.12;100662.75;5589555;31;32667;-67
2022/05/01 11:03:32;;;;;;;3.78;1.42;;;;;;;28.04;23.75;100660.25;5589312;31;33687;-67
2022/05/01 11:06:35;;;;;;;;;;;;;;;27.78;24.80;100662.22;5589823;31;32702;-67
2022/05/01 11:09:41;;;;;;;3.22;1.40;;;;;;;29.10;22.69;100657.09;5590504;31;34946;-68
2022/05/01 11:12:45;;;;;;;2.65;1.55;;;;;;;29.80;21.97;100658.47;5588852;31;32622;-68
2022/05/01 11:15:49;;;;;;;2.15;1.60;;;;;;;28.98;22.42;100651.19;5589570;31;33412;-66
2022/05/01 11:18:54;;;;;;;4.03;1.60;;;;;;;27.63;24.31;100648.62;5590316;31;33861;-67
2022/05/01 11:22:06;;;;;;;2.83;1.60;;;;;;;28.66;22.38;100646.13;5589159;31;33994;-65
2022/05/01 11:25:12;;;;;;;1.87;1.58;;;;;;;27.69;24.34;100643.97;5588964;31;32430;-66
2022/05/01 11:28:42;;;;;;;2.58;1.58;;;;;;;29.39;21.44;100642.75;5590103;31;33867;-65
2022/05/01 11:31:49;;;;;;;2.67;1.77;;;;;;;30.55;19.99;100634.13;5580262;31;33877;-66
2022/05/01 11:34:54;;;;;;;2.37;1.50;;;;;;;28.98;21.80;100629.34;5589524;31;32455;-65
2022/05/01 11:38:00;;;;;;;4.28;1.77;;;;;;;27.75;23.83;100623.78;5590166;31;33920;-67
2022/05/01 11:41:04;;;;;;;3.83;1.87;;;;;;;26.88;23.14;100622.09;5589337;31;32448;-66
2022/05/01 11:44:24;;;;;;;3.25;1.73;;;;;;;26.17;23.58;100625.34;5589165;31;33125;-68
2022/05/01 11:47:35;;;;;;;2.37;1.65;;;;;;;29.34;21.10;100632.63;5588805;31;32748;-67
2022/05/01 11:50:40;;;;;;;1.92;1.55;;;;;;;32.89;17.77;100614.34;5589193;31;33232;-67
2022/05/01 11:53:43;;;;;;;1.70;1.50;;;;;;;34.31;16.16;100615.06;5590059;31;34679;-67
2022/05/01 12:03:39;;;;;;;3.92;1.62;;;;;;;32.11;17.69;100605.28;5590148;31;34622;-66
2022/05/01 12:06:43;;;;;;;2.72;1.62;;;;;;;30.56;19.13;100605.66;5588972;31;32601;-66
2022/05/01 12:09:47;;;;;;;3.80;1.37;;;;;;;29.20;20.97;100602.38;5589277;31;32386;-66
2022/05/01 12:12:51;;;;;;;2.10;1.55;;;;;;;29.63;20.01;100595.19;5589074;31;33597;-66
2022/05/01 12:15:54;;;;;;;1.98;1.40;;;;;;;32.94;17.00;100592.22;5589219;31;34064;-66
2022/05/01 12:18:57;;;;;;;2.12;1.48;;;;;;;33.07;16.06;100596.84;5588564;31;32823;-66
2022/05/01 12:21:59;;;;;;;3.15;1.50;;;;;;;32.69;17.90;100596.37;5589250;31;32328;-64
2022/05/01 12:25:03;;;;;;;2.30;1.50;;;;;;;28.63;21.09;100592.09;5589143;31;32979;-67
2022/05/01 12:28:07;;;;;;;1.77;1.40;;;;;;;28.61;22.14;100577.91;5588849;31;32776;-66
2022/05/01 12:31:10;;;;;;;4.28;1.40;;;;;;;28.67;21.68;100576.78;5588699;31;33498;-67
2022/05/01 12:34:22;;;;;;;1.98;1.40;;;;;;;32.10;18.63;100572.63;5588538;31;33924;-66
2022/05/01 12:37:31;;;;;;;1.87;1.17;;;;;;;33.15;16.63;100566.72;5588528;31;34106;-66
2022/05/01 12:43:55;;;;;;;5.50;1.40;;;;;;;33.63;16.56;100566.00;5588480;31;32918;-66
2022/05/01 12:46:58;;;;;;;2.00;1.20;;;;;;;35.76;14.74;100562.94;5588875;31;32750;-68
2022/05/01 12:50:02;;;;;;;2.00;1.20;;;;;;;34.51;16.19;100561.28;5588428;31;33788;-67
2022/05/01 12:53:21;;;;;;;2.15;1.55;;;;;;;35.20;15.87;100548.31;5588895;31;32446;-67
2022/05/01 12:56:27;;;;;;;2.22;1.42;;;;;;;33.61;16.03;100555.31;5588542;31;32843;-67
2022/05/01 12:59:31;;;;;;;2.33;1.70;;;;;;;34.27;15.68;100538.91;5589415;31;34673;-67
2022/05/01 13:02:34;;;;;;;3.30;1.15;;;;;;;35.97;14.93;100536.16;5589526;31;33930;-67
2022/05/01 13:05:38;;;;;;;2.95;1.27;;;;;;;34.34;16.53;100530.97;5588667;31;32316;-67
2022/05/01 13:08:45;;;;;;;2.25;1.20;;;;;;;34.50;15.61;100518.34;5589014;31;34660;-67
2022/05/01 13:12:03;;;;;;;2.28;1.40;;;;;;;36.46;14.40;100528.22;5588119;31;32913;-66
2022/05/01 13:15:06;;;;;;;2.33;1.45;;;;;;;33.88;16.50;100515.78;5588306;31;33821;-65
2022/05/01 13:18:08;;;;;;;2.78;1.60;;;;;;;29.75;20.26;100515.50;5589287;31;34666;-67
2022/05/01 13:21:11;;;;;;;2.30;1.50;;;;;;;25.24;25.44;100507.34;5588430;31;33837;-66
2022/05/01 13:24:18;;;;;;;5.18;1.85;;;;;;;26.39;26.09;100503.59;5588633;31;33591;-65
2022/05/01 13:27:22;;;;;;;1.83;1.45;;;;;;;26.35;25.08;100510.66;5589480;31;34169;-66
2022/05/01 13:30:25;;;;;;;1.87;1.20;;;;;;;26.18;25.11;100506.50;5587795;31;33742;-66
2022/05/01 13:33:28;;;;;;;3.58;1.45;;;;;;;27.72;23.50;100507.94;5588216;31;32453;-66
2022/05/01 13:36:31;;;;;;;2.50;1.50;;;;;;;27.54;23.63;100500.38;5587839;31;33275;-66
2022/05/01 13:46:17;;;;;;;2.85;1.60;;;;;;;25.88;26.37;100490.91;5588179;31;33925;-65
2022/05/01 13:49:21;;;;;;;2.47;1.62;;;;;;;24.63;26.78;100479.72;5589130;31;34734;-66
2022/05/01 13:52:25;;;;;;;2.22;1.55;;;;;;;24.06;29.35;100487.47;5587650;31;32906;-66
2022/05/01 13:55:28;;;;;;;1.80;1.30;;;;;;;24.06;29.47;100471.22;5587748;31;32658;-66
2022/05/01 13:58:31;;;;;;;3.50;1.60;;;;;;;24.25;28.28;100477.16;5586907;31;32334;-66
2022/05/01 14:01:37;;;;;;;2.20;1.70;;;;;;;23.47;28.96;100481.06;5587664;31;32266;-66
2022/05/01 14:04:40;;;;;;;3.55;1.67;;;;;;;23.72;29.41;100480.59;5587721;31;32809;-66
2022/05/01 14:07:43;;;;;;;5.70;1.70;;;;;;;23.94;28.21;100481.37;5587335;31;32424;-66
2022/05/01 14:10:46;;;;;;;3.28;1.60;;;;;;;24.04;28.76;100477.97;5587142;31;33597;-65
2022/05/01 14:13:49;;;;;;;2.05;1.58;;;;;;;23.28;28.71;100472.38;5588479;31;34088;-65
2022/05/01 14:16:52;;;;;;;2.00;1.70;;;;;;;22.41;29.15;100471.19;5587754;31;32820;-66
2022/05/01 14:19:56;;;;;;;3.87;1.60;;;;;;;22.88;29.15;100472.56;5587535;31;32371;-67
2022/05/01 14:22:59;;;;;;;1.92;1.33;;;;;;;23.33;28.87;100469.72;5587567;31;32944;-66
2022/05/01 14:26:02;;;;;;;2.72;1.60;;;;;;;23.74;28.28;100479.25;5587367;31;32422;-66
2022/05/01 14:29:05;;;;;;;2.65;1.65;;;;;;;24.01;29.52;100473.88;5587275;31;33253;-66
2022/05/01 14:32:27;;;;;;;2.47;1.40;;;;;;;23.81;27.85;100473.66;5587310;31;32576;-66
2022/05/01 14:35:34;;;;;;;3.60;1.70;;;;;;;24.35;27.43;100462.91;5587596;31;34251;-66
2022/05/01 14:38:55;;;;;;;1.58;1.35;;;;;;;24.21;27.70;100462.47;5587673;31;34120;-64
2022/05/01 14:41:59;;;;;;;2.40;1.70;;;;;;;24.23;27.24;100454.91;5587748;31;34199;-66
2022/05/01 14:45:06;;;;;;;2.72;1.55;;;;;;;23.77;28.10;100448.94;5587269;31;34376;-65
2022/05/01 14:48:35;;;;;;;3.30;1.75;;;;;;;24.15;27.42;100441.78;5587470;31;34666;-66
2022/05/01 14:51:40;;;;;;;3.17;1.70;;;;;;;23.81;28.01;100447.37;5587599;31;34035;-65
2022/05/01 14:54:47;;;;;;;1.75;1.50;;;;;;;23.49;28.89;100448.28;5587710;31;34073;-66
2022/05/01 14:57:54;;;;;;;2.15;1.37;;;;;;;23.35;29.48;100440.50;5588040;31;34035;-65
2022/05/01 15:07:44;;;;;;;2.70;1.60;;;;;;;24.21;28.97;100427.22;5589245;31;33118;-65
2022/05/01 15:10:47;;;;;;;3.15;1.77;;;;;;;23.48;28.22;100427.72;5589722;31;33694;-66